Time;durP1;ratioP1;P1;durP2;ratioP2;P2;SDS_P1;SDS_P2;PMS_P1;PMS_P2;Temp;Humidity;BMP_temperature;BMP_pressure;BME280_temperature;BME280_humidity;BME280_pressure;Samples;Min_cycle;Max_cycle;Signal;HPM_P1;HPM_P2
2023/05/07 00:02:07;;;;;;;20.27;4.80;;;17.10;99.90;;;;;;5111608;28;20035;-77
2023/05/07 00:04:36;;;;;;;20.15;5.25;;;17.10;99.90;;;;;;5111558;28;20117;-76
2023/05/07 00:07:03;;;;;;;18.85;5.15;;;17.10;99.90;;;;;;5111381;28;20408;-75
2023/05/07 00:09:28;;;;;;;19.17;5.00;;;16.90;99.90;;;;;;5111237;28;20031;-76
2023/05/07 00:11:54;;;;;;;20.45;5.05;;;16.90;99.90;;;;;;5111586;28;20048;-76
2023/05/07 00:14:20;;;;;;;21.30;5.20;;;16.90;99.90;;;;;;5111908;28;20043;-76
2023/05/07 00:16:46;;;;;;;21.65;5.45;;;17.00;99.90;;;;;;5111857;28;20056;-76
2023/05/07 00:19:12;;;;;;;18.13;4.63;;;17.00;99.90;;;;;;5111686;28;20059;-76
2023/05/07 00:21:38;;;;;;;19.40;4.85;;;16.90;99.90;;;;;;5111327;28;20046;-76
2023/05/07 00:24:05;;;;;;;20.55;5.50;;;17.00;99.90;;;;;;5111901;28;20047;-76
2023/05/07 00:26:30;;;;;;;17.75;5.07;;;17.00;99.90;;;;;;5111800;28;20504;-77
2023/05/07 00:28:56;;;;;;;18.38;5.18;;;16.90;99.90;;;;;;5111894;28;20024;-76
2023/05/07 00:31:22;;;;;;;21.00;5.32;;;17.00;99.90;;;;;;5114613;28;20038;-76
2023/05/07 00:33:47;;;;;;;20.65;5.32;;;17.00;99.90;;;;;;5115412;28;20027;-76
2023/05/07 00:36:13;;;;;;;20.88;5.68;;;17.00;99.90;;;;;;5115144;28;20106;-76
2023/05/07 00:38:39;;;;;;;17.98;4.68;;;17.00;99.90;;;;;;5115747;28;20028;-76
2023/05/07 00:41:05;;;;;;;19.75;4.90;;;17.00;99.90;;;;;;5114979;28;20023;-76
2023/05/07 00:43:31;;;;;;;20.55;5.18;;;17.00;99.90;;;;;;5115018;28;20077;-76
2023/05/07 00:45:57;;;;;;;22.40;5.63;;;17.00;99.90;;;;;;5116023;28;20016;-76
2023/05/07 00:48:24;;;;;;;21.40;5.20;;;17.00;99.90;;;;;;5114969;28;20122;-77
2023/05/07 00:50:50;;;;;;;18.50;5.32;;;16.90;99.90;;;;;;5114690;28;20038;-76
2023/05/07 00:53:16;;;;;;;21.08;5.30;;;16.90;99.90;;;;;;5114837;28;20369;-76
2023/05/07 00:55:42;;;;;;;23.58;6.13;;;16.90;99.90;;;;;;5115081;28;20039;-76
2023/05/07 00:58:08;;;;;;;21.33;5.25;;;16.90;99.90;;;;;;5114956;28;20027;-76
2023/05/07 01:00:35;;;;;;;20.10;5.03;;;16.90;99.90;;;;;;5114993;28;20050;-76
2023/05/07 01:03:01;;;;;;;19.98;4.80;;;16.90;99.90;;;;;;5115115;28;20038;-76
2023/05/07 01:05:28;;;;;;;20.33;5.15;;;16.90;99.90;;;;;;5114448;28;20031;-76
2023/05/07 01:07:55;;;;;;;19.02;5.43;;;16.80;99.90;;;;;;5115494;28;20028;-76
2023/05/07 01:10:20;;;;;;;23.63;6.15;;;16.80;99.90;;;;;;5114346;28;20074;-76
2023/05/07 01:12:47;;;;;;;21.38;6.10;;;16.90;99.90;;;;;;5114829;28;20515;-77
2023/05/07 01:15:13;;;;;;;23.30;6.47;;;16.90;99.90;;;;;;5114511;28;20032;-77
2023/05/07 01:17:41;;;;;;;25.58;6.40;;;16.90;99.90;;;;;;5114440;28;20016;-76
2023/05/07 01:20:08;;;;;;;21.88;6.45;;;16.80;99.90;;;;;;5114164;28;20019;-77
2023/05/07 01:22:38;;;;;;;27.17;6.97;;;16.80;99.90;;;;;;5114772;28;20039;-77
2023/05/07 01:25:05;;;;;;;26.70;7.30;;;16.80;99.90;;;;;;5114748;28;20023;-77
2023/05/07 01:27:33;;;;;;;25.48;7.05;;;16.80;99.90;;;;;;5114762;28;20457;-77
2023/05/07 01:29:58;;;;;;;26.90;7.18;;;16.80;99.90;;;;;;5114349;28;20077;-77
2023/05/07 01:32:48;;;;;;;29.90;7.38;;;16.80;99.90;;;;;;5114422;28;20023;-76
2023/05/07 01:35:20;;;;;;;29.25;6.95;;;16.80;99.90;;;;;;5114288;28;20094;-77
2023/05/07 01:37:47;;;;;;;30.80;7.93;;;16.70;99.90;;;;;;5114361;28;20028;-77
2023/05/07 01:40:13;;;;;;;28.08;7.13;;;16.80;99.90;;;;;;5114351;28;20507;-76
2023/05/07 01:42:39;;;;;;;22.63;6.60;;;16.80;99.90;;;;;;5113199;28;20043;-76
2023/05/07 01:45:06;;;;;;;28.63;7.00;;;16.80;99.90;;;;;;5114260;28;20032;-77
2023/05/07 01:47:33;;;;;;;30.15;7.20;;;16.80;99.90;;;;;;5113807;28;20042;-77
2023/05/07 01:49:59;;;;;;;24.23;6.50;;;16.90;99.90;;;;;;5113552;28;20018;-77
2023/05/07 01:52:25;;;;;;;25.83;6.85;;;16.90;99.90;;;;;;5114199;28;20103;-76
2023/05/07 01:54:50;;;;;;;24.15;7.05;;;16.80;99.90;;;;;;5113866;28;20024;-77
2023/05/07 01:57:16;;;;;;;29.83;7.30;;;16.80;99.90;;;;;;5114189;28;20027;-76
2023/05/07 01:59:42;;;;;;;28.30;6.97;;;16.80;99.90;;;;;;5113747;28;20027;-77
2023/05/07 02:02:07;;;;;;;29.17;6.90;;;16.80;99.90;;;;;;5113692;28;20032;-76
2023/05/07 02:04:33;;;;;;;25.77;6.75;;;16.80;99.90;;;;;;5113476;28;20015;-76
2023/05/07 02:06:59;;;;;;;24.10;6.82;;;16.70;99.90;;;;;;5113844;28;20027;-76
2023/05/07 02:09:24;;;;;;;28.08;6.95;;;16.70;99.90;;;;;;5113529;28;20445;-77
2023/05/07 02:11:50;;;;;;;27.27;6.43;;;16.80;99.90;;;;;;5113071;28;20047;-77
2023/05/07 02:14:16;;;;;;;23.67;6.15;;;16.80;99.90;;;;;;5113642;28;20058;-76
2023/05/07 02:16:42;;;;;;;26.08;6.70;;;16.80;99.90;;;;;;5113256;28;20030;-76
2023/05/07 02:19:07;;;;;;;26.77;7.00;;;16.80;99.90;;;;;;5113019;28;20051;-76
2023/05/07 02:21:33;;;;;;;21.48;5.93;;;16.80;99.90;;;;;;5113468;28;20028;-75
2023/05/07 02:23:59;;;;;;;30.10;7.25;;;16.80;99.90;;;;;;5113348;28;20024;-76
2023/05/07 02:26:25;;;;;;;25.85;6.13;;;16.80;99.90;;;;;;5113060;28;20210;-76
2023/05/07 02:28:51;;;;;;;27.02;6.82;;;16.80;99.90;;;;;;5112960;28;20032;-76
2023/05/07 02:31:17;;;;;;;23.88;6.38;;;16.80;99.90;;;;;;5112941;28;20642;-77
2023/05/07 02:33:43;;;;;;;26.85;6.55;;;16.80;99.90;;;;;;5112704;28;20043;-77
2023/05/07 02:36:10;;;;;;;21.70;6.22;;;16.80;99.90;;;;;;5112877;28;20049;-77
2023/05/07 02:38:35;;;;;;;21.30;6.35;;;16.80;99.90;;;;;;5112838;28;20024;-76
2023/05/07 02:41:01;;;;;;;27.92;6.45;;;16.80;99.90;;;;;;5113320;28;20102;-76
2023/05/07 02:43:27;;;;;;;25.98;6.28;;;16.80;99.90;;;;;;5112935;28;20027;-77
2023/05/07 02:46:07;;;;;;;19.27;5.90;;;16.80;99.90;;;;;;5112692;28;20484;-77
2023/05/07 02:48:34;;;;;;;21.25;6.20;;;16.80;99.90;;;;;;5112780;28;20020;-77
2023/05/07 02:51:00;;;;;;;22.88;6.40;;;16.80;99.90;;;;;;5112643;28;20068;-76
2023/05/07 02:53:26;;;;;;;23.95;6.38;;;16.80;99.90;;;;;;5112138;28;20730;-76
2023/05/07 02:55:56;;;;;;;25.05;6.20;;;16.80;99.90;;;;;;5112715;28;20034;-77
2023/05/07 02:58:22;;;;;;;25.45;5.88;;;16.80;99.90;;;;;;5112737;28;20080;-76
2023/05/07 03:00:48;;;;;;;22.55;6.45;;;16.70;99.90;;;;;;5112570;28;20027;-76
2023/05/07 03:03:14;;;;;;;21.58;6.07;;;16.80;99.90;;;;;;5112848;28;20081;-77
2023/05/07 03:05:40;;;;;;;23.50;6.07;;;16.70;99.90;;;;;;5112666;28;20023;-76
2023/05/07 03:08:06;;;;;;;26.45;6.47;;;16.70;99.90;;;;;;5112375;28;20706;-77
2023/05/07 03:10:31;;;;;;;26.67;6.72;;;16.70;99.90;;;;;;5112489;28;20023;-76
2023/05/07 03:12:57;;;;;;;26.13;7.03;;;16.70;99.90;;;;;;5111974;28;20055;-76
2023/05/07 03:15:23;;;;;;;25.05;7.30;;;16.70;99.90;;;;;;5111977;28;20103;-76
2023/05/07 03:17:48;;;;;;;25.08;6.43;;;16.70;99.90;;;;;;5112248;28;20027;-77
2023/05/07 03:20:14;;;;;;;22.55;6.45;;;16.70;99.90;;;;;;5112416;28;20484;-77
2023/05/07 03:22:40;;;;;;;22.67;6.43;;;16.70;99.90;;;;;;5112585;28;20028;-76
2023/05/07 03:25:07;;;;;;;23.85;6.20;;;16.70;99.90;;;;;;5112251;28;20388;-76
2023/05/07 03:27:33;;;;;;;23.13;6.45;;;16.70;99.90;;;;;;5112766;28;20034;-76
2023/05/07 03:30:00;;;;;;;27.65;6.65;;;16.70;99.90;;;;;;5111940;28;20023;-76
2023/05/07 03:32:25;;;;;;;29.10;7.05;;;16.70;99.90;;;;;;5112615;28;20095;-76
2023/05/07 03:34:51;;;;;;;24.63;6.32;;;16.70;99.90;;;;;;5112053;28;20031;-76
2023/05/07 03:37:17;;;;;;;21.98;6.75;;;16.50;99.90;;;;;;5112128;28;20038;-76
2023/05/07 03:39:43;;;;;;;29.80;7.97;;;16.60;99.90;;;;;;5112218;28;20031;-76
2023/05/07 03:42:08;;;;;;;26.58;6.60;;;16.60;99.90;;;;;;5111780;28;20427;-77
2023/05/07 03:44:36;;;;;;;25.15;6.38;;;16.60;99.90;;;;;;5111721;28;20031;-76
2023/05/07 03:47:02;;;;;;;23.70;6.90;;;16.60;99.90;;;;;;5112045;28;20499;-77
2023/05/07 03:49:27;;;;;;;21.13;5.85;;;16.60;99.90;;;;;;5111831;28;20400;-77
2023/05/07 03:51:53;;;;;;;24.70;6.90;;;16.60;99.90;;;;;;5111989;28;20032;-76
2023/05/07 03:54:19;;;;;;;21.95;6.15;;;16.50;99.90;;;;;;5111668;28;20034;-77
2023/05/07 03:56:44;;;;;;;21.42;6.80;;;16.50;99.90;;;;;;5111728;28;20484;-76
2023/05/07 03:59:10;;;;;;;23.60;7.38;;;16.50;99.90;;;;;;5111257;28;20369;-76
2023/05/07 04:01:36;;;;;;;23.55;6.50;;;16.60;99.90;;;;;;5111905;28;20043;-76
2023/05/07 04:04:02;;;;;;;23.02;6.30;;;16.60;99.90;;;;;;5112224;28;20023;-77
2023/05/07 04:06:28;;;;;;;23.77;6.82;;;16.60;99.90;;;;;;5115074;28;20404;-76
2023/05/07 04:08:54;;;;;;;29.75;6.80;;;16.60;99.90;;;;;;5116119;28;20031;-76
2023/05/07 04:11:20;;;;;;;22.90;6.90;;;16.60;99.90;;;;;;5115877;28;20150;-76
2023/05/07 04:13:46;;;;;;;24.10;6.45;;;16.60;99.90;;;;;;5115424;28;20039;-77
2023/05/07 04:16:11;;;;;;;23.63;6.75;;;16.50;99.90;;;;;;5116064;28;20028;-77
2023/05/07 04:18:37;;;;;;;21.38;6.20;;;16.50;99.90;;;;;;5115784;28;20027;-76
2023/05/07 04:21:03;;;;;;;27.60;7.15;;;16.50;99.90;;;;;;5115470;28;20028;-76
2023/05/07 04:23:28;;;;;;;22.73;6.25;;;16.50;99.90;;;;;;5115802;28;20888;-77
2023/05/07 04:25:55;;;;;;;24.08;6.60;;;16.50;99.90;;;;;;5116324;28;20366;-77
2023/05/07 04:28:20;;;;;;;28.20;6.65;;;16.60;99.90;;;;;;5115560;28;20492;-75
2023/05/07 04:30:46;;;;;;;20.52;5.80;;;16.50;99.90;;;;;;5115536;28;20027;-77
2023/05/07 04:33:13;;;;;;;21.63;5.78;;;16.60;99.90;;;;;;5115586;28;20034;-77
2023/05/07 04:35:39;;;;;;;22.13;6.22;;;16.50;99.90;;;;;;5115975;28;20023;-76
2023/05/07 04:38:05;;;;;;;22.83;5.70;;;16.50;99.90;;;;;;5115513;28;20450;-76
2023/05/07 04:40:31;;;;;;;22.10;6.32;;;16.50;99.90;;;;;;5115294;28;20023;-77
2023/05/07 04:42:56;;;;;;;21.05;5.00;;;16.50;99.90;;;;;;5114911;28;20039;-76
2023/05/07 04:45:22;;;;;;;18.52;5.03;;;16.50;99.90;;;;;;5115803;28;20030;-77
2023/05/07 04:47:48;;;;;;;17.88;5.22;;;16.50;99.90;;;;;;5115364;28;20032;-77
2023/05/07 04:50:13;;;;;;;16.88;5.30;;;16.50;99.90;;;;;;5115042;28;20099;-76
2023/05/07 04:52:39;;;;;;;18.13;5.07;;;16.50;99.90;;;;;;5115409;28;20020;-77
2023/05/07 04:55:05;;;;;;;19.30;4.95;;;16.50;99.90;;;;;;5114850;28;20031;-77
2023/05/07 04:57:30;;;;;;;18.60;4.90;;;16.40;99.90;;;;;;5114796;28;20377;-77
2023/05/07 04:59:56;;;;;;;19.50;5.07;;;16.50;99.90;;;;;;5114962;28;20024;-76
2023/05/07 05:02:22;;;;;;;17.30;5.50;;;16.50;99.90;;;;;;5114578;28;20036;-77
2023/05/07 05:04:48;;;;;;;18.67;4.60;;;16.50;99.90;;;;;;5115477;28;20031;-77
2023/05/07 05:07:13;;;;;;;15.35;4.63;;;16.50;99.90;;;;;;5115166;28;20028;-77
2023/05/07 05:09:39;;;;;;;18.52;5.57;;;16.50;99.90;;;;;;5114168;28;20030;-77
2023/05/07 05:12:07;;;;;;;18.45;5.45;;;16.50;99.90;;;;;;5114430;28;20154;-76
2023/05/07 05:14:32;;;;;;;14.55;5.05;;;16.50;99.90;;;;;;5114593;28;20027;-77
2023/05/07 05:16:58;;;;;;;14.55;4.70;;;16.50;99.90;;;;;;5114435;28;20556;-77
2023/05/07 05:19:24;;;;;;;23.00;5.30;;;16.50;99.90;;;;;;5114572;28;20031;-77
2023/05/07 05:21:49;;;;;;;21.40;5.15;;;16.50;99.90;;;;;;5114817;28;20115;-75
2023/05/07 05:24:15;;;;;;;19.50;5.30;;;16.50;99.90;;;;;;5114578;28;20023;-77
2023/05/07 05:26:41;;;;;;;19.42;5.13;;;16.50;99.90;;;;;;5114159;28;20102;-77
2023/05/07 05:29:07;;;;;;;20.60;6.03;;;16.50;99.90;;;;;;5114212;28;20031;-77
2023/05/07 05:31:33;;;;;;;19.02;5.00;;;16.50;99.90;;;;;;5114732;28;20055;-77
2023/05/07 05:33:59;;;;;;;16.33;5.10;;;16.50;99.90;;;;;;5114343;28;20070;-77
2023/05/07 05:36:25;;;;;;;19.83;5.25;;;16.50;99.90;;;;;;5114181;28;20023;-77
2023/05/07 05:38:51;;;;;;;19.80;5.95;;;16.60;99.90;;;;;;5113931;28;20027;-76
2023/05/07 05:41:17;;;;;;;20.02;5.32;;;16.60;99.90;;;;;;5113602;28;20544;-77
2023/05/07 05:43:42;;;;;;;19.52;5.68;;;16.60;99.90;;;;;;5114060;28;20081;-77
2023/05/07 05:46:10;;;;;;;23.50;5.68;;;16.60;99.90;;;;;;5113916;28;20040;-77
2023/05/07 05:48:36;;;;;;;23.00;5.97;;;16.60;99.90;;;;;;5114596;28;20036;-77
2023/05/07 05:51:02;;;;;;;24.60;6.00;;;16.50;99.90;;;;;;5114023;28;20107;-77
2023/05/07 05:53:28;;;;;;;21.45;5.85;;;16.60;99.90;;;;;;5114243;28;20500;-77
2023/05/07 05:55:53;;;;;;;22.20;5.85;;;16.60;99.90;;;;;;5114001;28;20037;-77
2023/05/07 05:58:19;;;;;;;20.77;5.53;;;16.60;99.90;;;;;;5113996;28;20023;-77
2023/05/07 06:00:48;;;;;;;22.70;6.15;;;16.60;99.90;;;;;;5113995;28;20103;-77
2023/05/07 06:03:13;;;;;;;21.40;5.65;;;16.60;99.90;;;;;;5114006;28;20056;-77
2023/05/07 06:05:39;;;;;;;20.73;5.80;;;16.60;99.90;;;;;;5113879;28;20051;-77
2023/05/07 06:08:05;;;;;;;23.35;5.72;;;16.60;99.90;;;;;;5113558;28;20024;-77
2023/05/07 06:10:31;;;;;;;19.15;5.47;;;16.70;99.90;;;;;;5095403;28;20394;-77
2023/05/07 06:12:57;;;;;;;25.30;6.00;;;16.70;99.90;;;;;;5113335;28;20144;-77
2023/05/07 06:15:22;;;;;;;19.85;5.88;;;16.70;99.90;;;;;;5113583;28;20070;-77
2023/05/07 06:17:49;;;;;;;24.25;6.00;;;16.80;99.90;;;;;;5113659;28;20038;-77
2023/05/07 06:20:14;;;;;;;22.85;5.72;;;16.80;99.90;;;;;;5113626;28;20020;-77
2023/05/07 06:22:40;;;;;;;19.17;5.45;;;16.80;99.90;;;;;;5113633;28;20511;-77
2023/05/07 06:25:06;;;;;;;19.63;5.63;;;16.80;99.90;;;;;;5113168;28;20031;-77
2023/05/07 06:27:32;;;;;;;21.05;5.80;;;16.90;99.90;;;;;;5112983;28;20836;-77
2023/05/07 06:29:57;;;;;;;21.85;6.22;;;16.90;99.90;;;;;;5113939;28;20114;-77
2023/05/07 06:32:23;;;;;;;23.48;5.72;;;16.90;99.90;;;;;;5113486;28;20028;-77
2023/05/07 06:34:49;;;;;;;24.10;5.65;;;16.90;99.90;;;;;;5113920;28;20016;-77
2023/05/07 06:37:15;;;;;;;22.52;6.15;;;17.00;99.90;;;;;;5112880;28;20073;-77
2023/05/07 06:39:40;;;;;;;22.85;6.20;;;17.10;99.90;;;;;;5112877;28;20094;-77
2023/05/07 06:42:06;;;;;;;23.20;5.38;;;17.20;99.90;;;;;;5112848;28;20525;-77
2023/05/07 06:44:32;;;;;;;22.02;5.38;;;17.20;99.90;;;;;;5113145;28;20055;-78
2023/05/07 06:46:58;;;;;;;23.42;6.38;;;17.30;99.90;;;;;;5113049;28;20031;-78
2023/05/07 06:49:23;;;;;;;22.58;5.78;;;17.30;99.90;;;;;;5112875;28;20020;-77
2023/05/07 06:51:49;;;;;;;17.52;5.05;;;17.40;99.90;;;;;;5112561;28;20027;-77
2023/05/07 06:54:15;;;;;;;20.58;5.80;;;17.40;99.90;;;;;;5112446;28;20451;-78
2023/05/07 06:56:40;;;;;;;17.52;5.13;;;17.50;99.90;;;;;;5112859;28;20492;-77
2023/05/07 06:59:06;;;;;;;18.27;5.05;;;17.50;99.90;;;;;;5112620;28;20084;-77
2023/05/07 07:01:32;;;;;;;20.70;5.07;;;17.50;99.90;;;;;;5094454;28;20110;-78
2023/05/07 07:03:58;;;;;;;20.83;5.80;;;17.50;99.90;;;;;;5112917;28;20503;-77
2023/05/07 07:06:23;;;;;;;20.98;6.00;;;17.60;99.90;;;;;;5112211;28;20031;-77
2023/05/07 07:08:49;;;;;;;17.92;5.10;;;17.70;99.90;;;;;;5112112;28;20024;-77
2023/05/07 07:11:15;;;;;;;17.77;5.30;;;17.60;99.90;;;;;;5112976;28;20084;-78
2023/05/07 07:13:42;;;;;;;18.15;5.75;;;17.70;99.90;;;;;;5112587;28;20039;-78
2023/05/07 07:16:08;;;;;;;17.58;4.82;;;17.70;99.90;;;;;;5112849;28;20035;-77
2023/05/07 07:18:34;;;;;;;16.35;4.75;;;17.80;99.90;;;;;;5112389;28;20028;-77
2023/05/07 07:20:59;;;;;;;20.75;5.72;;;17.70;99.90;;;;;;5112518;28;20054;-77
2023/05/07 07:23:25;;;;;;;17.38;5.15;;;17.70;99.90;;;;;;5112220;28;20057;-78
2023/05/07 07:25:51;;;;;;;18.70;5.03;;;17.70;99.90;;;;;;5094081;28;20118;-84
2023/05/07 07:28:17;;;;;;;17.02;4.82;;;17.60;99.90;;;;;;5113079;28;20513;-91
2023/05/07 07:30:43;;;;;;;17.08;4.65;;;17.70;99.90;;;;;;5113782;28;20031;-90
2023/05/07 07:33:08;;;;;;;15.43;4.55;;;17.80;99.90;;;;;;5114260;28;20099;-89
2023/05/07 07:35:34;;;;;;;18.73;5.22;;;17.80;99.90;;;;;;5112639;28;20024;-90
2023/05/07 07:38:01;;;;;;;19.63;5.10;;;17.80;99.90;;;;;;5111403;28;20019;-79
2023/05/07 07:40:27;;;;;;;18.40;5.25;;;17.80;99.90;;;;;;5112242;28;20019;-80
2023/05/07 07:42:53;;;;;;;20.55;4.97;;;17.80;99.90;;;;;;5111812;28;20431;-79
2023/05/07 07:45:19;;;;;;;20.65;5.20;;;17.80;99.90;;;;;;5112464;28;20023;-79
2023/05/07 07:47:45;;;;;;;21.35;5.05;;;17.80;99.90;;;;;;5111831;28;20103;-80
2023/05/07 07:50:11;;;;;;;15.50;4.70;;;17.90;99.90;;;;;;5111888;28;20472;-79
2023/05/07 07:52:36;;;;;;;17.98;4.85;;;17.90;99.90;;;;;;5112109;28;20031;-81
2023/05/07 07:55:03;;;;;;;18.63;5.13;;;17.90;99.90;;;;;;5111549;28;20075;-81
2023/05/07 07:57:28;;;;;;;15.70;4.85;;;17.90;99.90;;;;;;5111744;28;20071;-81
2023/05/07 07:59:54;;;;;;;15.85;4.85;;;17.80;99.90;;;;;;5112398;28;20032;-81
2023/05/07 08:02:20;;;;;;;16.65;4.38;;;17.80;99.90;;;;;;5111867;28;20602;-82
2023/05/07 08:04:46;;;;;;;15.00;4.50;;;17.80;99.90;;;;;;5111799;28;20480;-80
2023/05/07 08:07:12;;;;;;;14.98;4.50;;;17.90;99.90;;;;;;5093303;28;20519;-80
2023/05/07 08:09:38;;;;;;;15.75;4.03;;;18.00;99.90;;;;;;5111766;28;20503;-80
2023/05/07 08:12:07;;;;;;;20.77;5.05;;;18.00;99.90;;;;;;5111610;28;20040;-82
2023/05/07 08:14:34;;;;;;;15.70;4.10;;;17.90;99.90;;;;;;5111825;28;20032;-82
2023/05/07 08:17:00;;;;;;;14.70;4.75;;;17.90;99.90;;;;;;5112232;28;20051;-85
2023/05/07 08:19:26;;;;;;;15.45;4.63;;;17.80;99.90;;;;;;5111152;28;20012;-83
2023/05/07 08:21:51;;;;;;;16.50;4.85;;;17.90;99.90;;;;;;5111316;28;20124;-81
2023/05/07 08:24:18;;;;;;;16.83;4.72;;;17.90;99.90;;;;;;5111471;28;20608;-80
2023/05/07 08:26:44;;;;;;;20.77;4.82;;;18.00;99.90;;;;;;5111787;28;20054;-81
2023/05/07 08:29:10;;;;;;;16.75;4.85;;;18.10;99.90;;;;;;5111316;28;20073;-82
2023/05/07 08:31:36;;;;;;;19.77;4.78;;;18.10;99.90;;;;;;5111078;28;20020;-81
2023/05/07 08:34:03;;;;;;;14.50;4.22;;;18.20;99.90;;;;;;5110570;28;20032;-82
2023/05/07 08:36:29;;;;;;;17.77;4.82;;;18.20;99.90;;;;;;5110705;28;20024;-82
2023/05/07 08:38:54;;;;;;;14.88;4.70;;;18.20;99.90;;;;;;5109956;28;20047;-82
2023/05/07 08:41:21;;;;;;;15.52;4.63;;;18.20;99.90;;;;;;5110892;28;20027;-81
2023/05/07 08:43:51;;;;;;;16.05;4.65;;;18.30;99.90;;;;;;5111278;28;20476;-79
2023/05/07 08:46:21;;;;;;;18.35;5.28;;;18.40;99.90;;;;;;5111163;28;20110;-79
2023/05/07 08:48:51;;;;;;;16.58;4.43;;;18.40;99.90;;;;;;5110849;28;20026;-78
2023/05/07 08:51:20;;;;;;;16.30;4.60;;;18.30;99.90;;;;;;5111641;28;20027;-80
2023/05/07 08:53:48;;;;;;;19.58;4.72;;;18.40;99.90;;;;;;5114188;28;20027;-79
2023/05/07 08:56:20;;;;;;;15.52;4.47;;;18.50;99.90;;;;;;5114400;28;20492;-79
2023/05/07 08:58:45;;;;;;;14.23;4.72;;;18.50;99.90;;;;;;5114784;28;20023;-79
2023/05/07 09:01:16;;;;;;;20.38;5.20;;;18.60;99.90;;;;;;5114579;28;20498;-79
2023/05/07 09:03:45;;;;;;;16.42;5.38;;;18.60;99.90;;;;;;5114366;28;20019;-79
2023/05/07 09:06:11;;;;;;;19.98;5.07;;;18.50;99.90;;;;;;5115072;28;20058;-79
2023/05/07 09:08:37;;;;;;;20.17;6.03;;;18.40;99.90;;;;;;5114762;28;20051;-79
2023/05/07 09:11:03;;;;;;;21.30;5.60;;;18.50;99.90;;;;;;5115447;28;20024;-80
2023/05/07 09:13:29;;;;;;;17.95;5.05;;;18.50;99.90;;;;;;5114603;28;20056;-80
2023/05/07 09:15:55;;;;;;;21.35;5.00;;;18.60;99.90;;;;;;5114578;28;20011;-79
2023/05/07 09:18:23;;;;;;;20.75;5.78;;;18.60;99.90;;;;;;5114231;28;20131;-80
2023/05/07 09:20:49;;;;;;;16.80;5.13;;;18.60;99.90;;;;;;5115003;28;20054;-79
2023/05/07 09:23:15;;;;;;;19.52;4.90;;;18.60;99.90;;;;;;5114710;28;20476;-79
2023/05/07 09:25:40;;;;;;;23.00;5.20;;;18.60;99.90;;;;;;5114907;28;20023;-80
2023/05/07 09:28:07;;;;;;;18.77;4.90;;;18.70;99.90;;;;;;5114440;28;20032;-80
2023/05/07 09:30:34;;;;;;;16.02;4.47;;;18.80;99.90;;;;;;5114361;28;20047;-80
2023/05/07 09:33:01;;;;;;;20.15;5.20;;;18.80;99.90;;;;;;5114138;28;20028;-81
2023/05/07 09:35:27;;;;;;;16.77;4.95;;;18.90;99.90;;;;;;5115264;28;20034;-80
2023/05/07 09:37:54;;;;;;;13.80;4.63;;;19.00;99.90;;;;;;5114342;28;20032;-81
2023/05/07 09:40:25;;;;;;;18.95;4.65;;;18.90;99.90;;;;;;5114880;28;20023;-82
2023/05/07 09:42:51;;;;;;;16.88;5.07;;;19.00;99.90;;;;;;5114523;28;20043;-82
2023/05/07 09:45:30;;;;;;;21.23;5.18;;;19.00;99.90;;;;;;5113980;28;20084;-81
2023/05/07 09:47:57;;;;;;;18.67;5.38;;;19.00;99.90;;;;;;5114213;28;20024;-81
2023/05/07 09:50:36;;;;;;;17.98;5.00;;;19.10;99.90;;;;;;5114474;28;20024;-82
2023/05/07 09:53:03;;;;;;;18.42;4.55;;;19.00;99.90;;;;;;5114160;28;20028;-81
2023/05/07 09:55:29;;;;;;;17.73;5.45;;;19.00;99.90;;;;;;5114194;28;20054;-81
2023/05/07 09:57:55;;;;;;;17.85;4.70;;;19.00;99.90;;;;;;5114389;28;20065;-81
2023/05/07 10:00:22;;;;;;;22.50;5.32;;;19.10;99.90;;;;;;5114051;28;20016;-80
2023/05/07 10:02:51;;;;;;;16.88;4.90;;;19.20;99.90;;;;;;5112834;28;20035;-81
2023/05/07 10:05:18;;;;;;;21.63;5.90;;;19.30;99.90;;;;;;5114421;28;20023;-80
2023/05/07 10:07:45;;;;;;;22.52;5.43;;;19.30;99.90;;;;;;5113608;28;20060;-80
2023/05/07 10:10:12;;;;;;;18.67;5.35;;;19.20;99.90;;;;;;5114142;28;20108;-80
2023/05/07 10:12:40;;;;;;;15.90;5.15;;;19.20;99.90;;;;;;5113870;28;20112;-81
2023/05/07 10:15:10;;;;;;;17.55;4.72;;;19.10;99.90;;;;;;5113929;28;20400;-81
2023/05/07 10:17:40;;;;;;;20.30;5.28;;;19.00;99.90;;;;;;5113230;28;20027;-80
2023/05/07 10:20:07;;;;;;;15.55;4.50;;;19.00;99.90;;;;;;5113789;28;20019;-81
2023/05/07 10:22:45;;;;;;;17.95;4.88;;;18.90;99.90;;;;;;5113703;28;20070;-81
2023/05/07 10:25:23;;;;;;;19.08;6.10;;;18.90;99.90;;;;;;5113122;28;20523;-81
2023/05/07 10:27:50;;;;;;;16.50;5.10;;;19.10;99.90;;;;;;5113988;28;20026;-81
2023/05/07 10:30:26;;;;;;;14.85;4.47;;;19.30;99.90;;;;;;5113742;28;20022;-80
2023/05/07 10:32:56;;;;;;;17.50;5.13;;;19.20;99.90;;;;;;5113669;28;20072;-80
2023/05/07 10:35:26;;;;;;;14.23;4.47;;;19.20;99.90;;;;;;5113849;28;20452;-80
2023/05/07 10:37:52;;;;;;;19.95;4.95;;;19.20;99.90;;;;;;5095162;28;20395;-80
2023/05/07 10:40:19;;;;;;;15.20;5.20;;;19.20;99.90;;;;;;5113280;28;20450;-80
2023/05/07 10:43:04;;;;;;;20.25;5.47;;;19.30;99.90;;;;;;5113100;28;20046;-79
2023/05/07 10:45:30;;;;;;;16.02;4.53;;;19.40;99.90;;;;;;5112735;28;20103;-81
2023/05/07 10:48:09;;;;;;;15.88;4.88;;;19.20;99.90;;;;;;5113382;28;20480;-80
2023/05/07 10:50:36;;;;;;;14.05;4.28;;;19.30;99.90;;;;;;5113115;28;20032;-80
2023/05/07 10:53:20;;;;;;;14.68;5.05;;;19.30;99.90;;;;;;5113138;28;20064;-79
2023/05/07 10:56:18;;;;;;;17.27;5.72;;;19.30;99.90;;;;;;5113218;28;20026;-80
2023/05/07 10:58:44;;;;;;;16.95;5.72;;;19.50;99.90;;;;;;5088946;28;20032;-80
2023/05/07 11:01:12;;;;;;;18.15;5.13;;;19.60;99.90;;;;;;5112772;28;20035;-79
2023/05/07 11:04:17;;;;;;;17.27;4.72;;;19.60;99.90;;;;;;5112655;28;20419;-80
2023/05/07 11:07:08;;;;;;;19.98;4.82;;;19.60;99.90;;;;;;5112684;28;20096;-79
2023/05/07 11:09:53;;;;;;;18.52;4.78;;;19.50;99.90;;;;;;5118619;27;20023;-80
2023/05/07 11:12:36;;;;;;;17.85;5.45;;;19.50;99.90;;;;;;5132657;27;20137;-80
2023/05/07 11:15:07;;;;;;;15.90;5.07;;;19.50;99.90;;;;;;5132258;27;20445;-79
2023/05/07 11:17:34;;;;;;;21.05;5.03;;;19.50;99.90;;;;;;5132783;27;20083;-79
2023/05/07 11:20:02;;;;;;;15.52;4.53;;;19.70;99.90;;;;;;5133393;27;20054;-79
2023/05/07 11:22:30;;;;;;;16.42;4.55;;;19.60;99.90;;;;;;5133489;27;20169;-80
2023/05/07 11:24:57;;;;;;;19.30;5.30;;;19.80;99.90;;;;;;5133073;27;20098;-80
2023/05/07 11:27:24;;;;;;;20.40;5.43;;;20.00;99.90;;;;;;5133075;27;20045;-80
2023/05/07 11:29:50;;;;;;;16.88;5.07;;;19.90;99.90;;;;;;5132795;27;20102;-79
2023/05/07 11:32:26;;;;;;;15.57;4.35;;;19.90;99.90;;;;;;5133102;27;20027;-80
2023/05/07 11:34:53;;;;;;;15.18;4.57;;;19.80;99.90;;;;;;5132773;27;20019;-80
2023/05/07 11:37:20;;;;;;;18.27;5.13;;;19.80;99.90;;;;;;5132625;27;20082;-79
2023/05/07 11:39:45;;;;;;;17.73;5.20;;;19.80;99.90;;;;;;5132769;27;20058;-79
2023/05/07 11:42:32;;;;;;;20.98;5.32;;;19.80;99.90;;;;;;5132578;27;20058;-80
2023/05/07 11:44:58;;;;;;;18.80;5.53;;;19.70;99.90;;;;;;5132475;27;20023;-80
2023/05/07 11:47:24;;;;;;;18.52;5.10;;;19.70;99.90;;;;;;5132640;27;20024;-79
2023/05/07 11:49:51;;;;;;;21.52;5.75;;;19.80;99.90;;;;;;5132337;27;20023;-79
2023/05/07 11:52:19;;;;;;;20.10;5.80;;;20.00;99.90;;;;;;5132556;27;20062;-79
2023/05/07 11:54:56;;;;;;;18.08;5.07;;;20.00;99.90;;;;;;5132260;27;20027;-79
2023/05/07 11:57:23;;;;;;;21.77;6.25;;;20.00;99.90;;;;;;5132643;28;20395;-79
2023/05/07 11:59:53;;;;;;;18.88;5.38;;;20.10;99.90;;;;;;5132773;28;20023;-79
2023/05/07 12:02:19;;;;;;;15.50;5.18;;;20.10;99.90;;;;;;5132556;28;20043;-79
2023/05/07 12:04:45;;;;;;;21.15;5.25;;;20.00;99.90;;;;;;5132255;28;20023;-80
2023/05/07 12:07:14;;;;;;;17.10;5.45;;;20.10;99.90;;;;;;5132666;28;20033;-79
2023/05/07 12:09:44;;;;;;;19.38;5.38;;;20.10;99.90;;;;;;5118866;28;20020;-80
2023/05/07 12:12:10;;;;;;;18.17;5.15;;;20.10;99.90;;;;;;5111147;28;20050;-79
2023/05/07 12:14:40;;;;;;;22.27;5.50;;;20.00;99.90;;;;;;5111936;28;20079;-77
2023/05/07 12:17:10;;;;;;;15.75;4.90;;;19.90;99.90;;;;;;5111864;28;20134;-77
2023/05/07 12:19:37;;;;;;;16.60;5.00;;;20.00;99.90;;;;;;5111448;28;20028;-76
2023/05/07 12:22:03;;;;;;;19.10;5.22;;;19.80;99.90;;;;;;5111677;28;20038;-77
2023/05/07 12:24:41;;;;;;;17.95;6.15;;;19.80;99.90;;;;;;5111507;28;20094;-77
2023/05/07 12:27:06;;;;;;;16.35;5.05;;;19.90;99.90;;;;;;5113979;28;20024;-78
2023/05/07 12:29:32;;;;;;;20.33;5.82;;;20.30;99.90;;;;;;5116014;28;20377;-78
2023/05/07 12:31:58;;;;;;;17.38;5.68;;;20.30;99.90;;;;;;5115597;28;20038;-78
2023/05/07 12:34:24;;;;;;;19.52;5.10;;;20.20;99.90;;;;;;5115455;28;20034;-78
2023/05/07 12:36:50;;;;;;;18.15;5.03;;;20.10;99.90;;;;;;5115672;28;20103;-78